sensor_id;sensor_type;location;lat;lon;timestamp;temperature;humidity
44886;DHT22;36669;51.428;21.162;2022-11-20T00:01:04;-5.70;99.90
44886;DHT22;36669;51.428;21.162;2022-11-20T00:03:30;-5.70;99.90
44886;DHT22;36669;51.428;21.162;2022-11-20T00:06:03;-5.80;99.90
44886;DHT22;36669;51.428;21.162;2022-11-20T00:08:29;-5.80;99.90
44886;DHT22;36669;51.428;21.162;2022-11-20T00:10:54;-5.90;99.90
44886;DHT22;36669;51.428;21.162;2022-11-20T00:13:20;-5.90;99.90
44886;DHT22;36669;51.428;21.162;2022-11-20T00:15:45;-5.90;99.90
44886;DHT22;36669;51.428;21.162;2022-11-20T00:18:11;-5.90;99.90
44886;DHT22;36669;51.428;21.162;2022-11-20T00:20:36;-5.90;99.90
44886;DHT22;36669;51.428;21.162;2022-11-20T00:23:02;-5.90;99.90
44886;DHT22;36669;51.428;21.162;2022-11-20T00:25:28;-5.90;99.90
44886;DHT22;36669;51.428;21.162;2022-11-20T00:27:54;-5.90;99.90
44886;DHT22;36669;51.428;21.162;2022-11-20T00:30:19;-5.80;99.90
44886;DHT22;36669;51.428;21.162;2022-11-20T00:32:45;-5.90;99.90
44886;DHT22;36669;51.428;21.162;2022-11-20T00:35:10;-5.90;99.90
44886;DHT22;36669;51.428;21.162;2022-11-20T00:37:36;-5.90;99.90
44886;DHT22;36669;51.428;21.162;2022-11-20T00:40:01;-6.00;99.90
44886;DHT22;36669;51.428;21.162;2022-11-20T00:42:27;-6.00;99.90
44886;DHT22;36669;51.428;21.162;2022-11-20T00:44:52;-6.10;99.90
44886;DHT22;36669;51.428;21.162;2022-11-20T00:47:18;-6.10;99.90
44886;DHT22;36669;51.428;21.162;2022-11-20T00:49:45;-6.20;99.90
44886;DHT22;36669;51.428;21.162;2022-11-20T00:52:10;-6.30;99.90
44886;DHT22;36669;51.428;21.162;2022-11-20T00:54:36;-6.30;99.90
44886;DHT22;36669;51.428;21.162;2022-11-20T00:57:01;-6.40;99.90
44886;DHT22;36669;51.428;21.162;2022-11-20T00:59:27;-6.40;99.90
44886;DHT22;36669;51.428;21.162;2022-11-20T01:01:52;-6.40;99.90
44886;DHT22;36669;51.428;21.162;2022-11-20T01:04:18;-6.30;99.90
44886;DHT22;36669;51.428;21.162;2022-11-20T01:06:43;-6.40;99.90
44886;DHT22;36669;51.428;21.162;2022-11-20T01:09:13;-6.40;99.90
44886;DHT22;36669;51.428;21.162;2022-11-20T01:11:43;-6.50;99.90
44886;DHT22;36669;51.428;21.162;2022-11-20T01:14:14;-6.40;99.90
44886;DHT22;36669;51.428;21.162;2022-11-20T01:16:43;-6.50;99.90
44886;DHT22;36669;51.428;21.162;2022-11-20T01:19:16;-6.40;99.90
44886;DHT22;36669;51.428;21.162;2022-11-20T01:21:43;-6.40;99.90
44886;DHT22;36669;51.428;21.162;2022-11-20T01:24:14;-6.40;99.90
44886;DHT22;36669;51.428;21.162;2022-11-20T01:26:41;-6.30;99.90
44886;DHT22;36669;51.428;21.162;2022-11-20T01:29:13;-6.40;99.90
44886;DHT22;36669;51.428;21.162;2022-11-20T01:31:38;-6.40;99.90
44886;DHT22;36669;51.428;21.162;2022-11-20T01:34:08;-6.40;99.90
44886;DHT22;36669;51.428;21.162;2022-11-20T01:36:36;-6.40;99.90
44886;DHT22;36669;51.428;21.162;2022-11-20T01:39:05;-6.40;99.90
44886;DHT22;36669;51.428;21.162;2022-11-20T01:41:31;-6.40;99.90
44886;DHT22;36669;51.428;21.162;2022-11-20T01:43:58;-6.40;99.90
44886;DHT22;36669;51.428;21.162;2022-11-20T01:46:23;-6.50;99.90
44886;DHT22;36669;51.428;21.162;2022-11-20T01:48:54;-6.50;99.90
44886;DHT22;36669;51.428;21.162;2022-11-20T01:53:58;-6.50;99.90
44886;DHT22;36669;51.428;21.162;2022-11-20T01:56:26;-6.50;99.90
44886;DHT22;36669;51.428;21.162;2022-11-20T01:58:56;-6.50;99.90
44886;DHT22;36669;51.428;21.162;2022-11-20T02:01:23;-6.50;99.90
44886;DHT22;36669;51.428;21.162;2022-11-20T02:03:49;-6.50;99.90
44886;DHT22;36669;51.428;21.162;2022-11-20T02:06:36;-6.50;99.90
44886;DHT22;36669;51.428;21.162;2022-11-20T02:09:03;-6.50;99.90
44886;DHT22;36669;51.428;21.162;2022-11-20T02:11:30;-6.50;99.90
44886;DHT22;36669;51.428;21.162;2022-11-20T02:13:56;-6.50;99.90
44886;DHT22;36669;51.428;21.162;2022-11-20T02:16:32;-6.50;99.90
44886;DHT22;36669;51.428;21.162;2022-11-20T02:19:01;-6.50;99.90
44886;DHT22;36669;51.428;21.162;2022-11-20T02:24:18;-6.60;99.90
44886;DHT22;36669;51.428;21.162;2022-11-20T02:26:54;-6.60;99.90
44886;DHT22;36669;51.428;21.162;2022-11-20T02:29:32;-6.60;99.90
44886;DHT22;36669;51.428;21.162;2022-11-20T02:32:00;-6.60;99.90
44886;DHT22;36669;51.428;21.162;2022-11-20T02:34:27;-6.60;99.90
44886;DHT22;36669;51.428;21.162;2022-11-20T02:36:52;-6.60;99.90
44886;DHT22;36669;51.428;21.162;2022-11-20T02:39:19;-6.60;99.90
44886;DHT22;36669;51.428;21.162;2022-11-20T02:41:45;-6.60;99.90
44886;DHT22;36669;51.428;21.162;2022-11-20T02:44:11;-6.60;99.90
44886;DHT22;36669;51.428;21.162;2022-11-20T02:46:37;-6.60;99.90
44886;DHT22;36669;51.428;21.162;2022-11-20T02:49:03;-6.60;99.90
44886;DHT22;36669;51.428;21.162;2022-11-20T02:51:29;-6.60;99.90
44886;DHT22;36669;51.428;21.162;2022-11-20T02:53:55;-6.60;99.90
44886;DHT22;36669;51.428;21.162;2022-11-20T02:56:21;-6.50;99.90
44886;DHT22;36669;51.428;21.162;2022-11-20T02:58:46;-6.50;99.90
44886;DHT22;36669;51.428;21.162;2022-11-20T03:01:12;-6.40;99.90
44886;DHT22;36669;51.428;21.162;2022-11-20T03:03:38;-6.40;99.90
44886;DHT22;36669;51.428;21.162;2022-11-20T03:06:03;-6.40;99.90
44886;DHT22;36669;51.428;21.162;2022-11-20T03:08:29;-6.40;99.90
44886;DHT22;36669;51.428;21.162;2022-11-20T03:10:54;-6.40;99.90
44886;DHT22;36669;51.428;21.162;2022-11-20T03:13:20;-6.40;99.90
44886;DHT22;36669;51.428;21.162;2022-11-20T03:15:45;-6.40;99.90
44886;DHT22;36669;51.428;21.162;2022-11-20T03:18:11;-6.40;99.90
44886;DHT22;36669;51.428;21.162;2022-11-20T03:20:36;-6.50;99.90
44886;DHT22;36669;51.428;21.162;2022-11-20T03:23:02;-6.50;99.90
44886;DHT22;36669;51.428;21.162;2022-11-20T03:25:28;-6.50;99.90
44886;DHT22;36669;51.428;21.162;2022-11-20T03:27:54;-6.50;99.90
44886;DHT22;36669;51.428;21.162;2022-11-20T03:30:19;-6.50;99.90
44886;DHT22;36669;51.428;21.162;2022-11-20T03:32:45;-6.50;99.90
44886;DHT22;36669;51.428;21.162;2022-11-20T03:35:11;-6.50;99.90
44886;DHT22;36669;51.428;21.162;2022-11-20T03:37:36;-6.60;99.90
44886;DHT22;36669;51.428;21.162;2022-11-20T03:40:02;-6.60;99.90
44886;DHT22;36669;51.428;21.162;2022-11-20T03:42:27;-6.60;99.90
44886;DHT22;36669;51.428;21.162;2022-11-20T03:44:53;-6.60;99.90
44886;DHT22;36669;51.428;21.162;2022-11-20T03:47:18;-6.60;99.90
44886;DHT22;36669;51.428;21.162;2022-11-20T03:49:44;-6.60;99.90
44886;DHT22;36669;51.428;21.162;2022-11-20T03:52:09;-6.60;99.90
44886;DHT22;36669;51.428;21.162;2022-11-20T03:54:35;-6.70;99.90
44886;DHT22;36669;51.428;21.162;2022-11-20T03:57:00;-6.60;99.90
44886;DHT22;36669;51.428;21.162;2022-11-20T03:59:26;-6.60;99.90
44886;DHT22;36669;51.428;21.162;2022-11-20T04:01:52;-6.70;99.90
44886;DHT22;36669;51.428;21.162;2022-11-20T04:04:19;-6.80;99.90
44886;DHT22;36669;51.428;21.162;2022-11-20T04:06:44;-6.80;99.90
44886;DHT22;36669;51.428;21.162;2022-11-20T04:09:09;-6.80;99.90
44886;DHT22;36669;51.428;21.162;2022-11-20T04:11:36;-6.90;99.90
44886;DHT22;36669;51.428;21.162;2022-11-20T04:14:05;-6.90;99.90
44886;DHT22;36669;51.428;21.162;2022-11-20T04:16:33;-7.00;99.90
44886;DHT22;36669;51.428;21.162;2022-11-20T04:19:01;-7.00;99.90
44886;DHT22;36669;51.428;21.162;2022-11-20T04:21:27;-7.00;99.90
44886;DHT22;36669;51.428;21.162;2022-11-20T04:23:54;-7.00;99.90
44886;DHT22;36669;51.428;21.162;2022-11-20T04:26:21;-7.00;99.90
44886;DHT22;36669;51.428;21.162;2022-11-20T04:28:46;-7.10;99.90
44886;DHT22;36669;51.428;21.162;2022-11-20T04:31:16;-7.10;99.90
44886;DHT22;36669;51.428;21.162;2022-11-20T04:33:42;-7.10;99.90
44886;DHT22;36669;51.428;21.162;2022-11-20T04:36:12;-7.10;99.90
44886;DHT22;36669;51.428;21.162;2022-11-20T04:38:37;-7.10;99.90
44886;DHT22;36669;51.428;21.162;2022-11-20T04:41:05;-7.10;99.90
44886;DHT22;36669;51.428;21.162;2022-11-20T04:43:31;-7.10;99.90
44886;DHT22;36669;51.428;21.162;2022-11-20T04:45:57;-7.20;99.90
44886;DHT22;36669;51.428;21.162;2022-11-20T04:48:24;-7.20;99.90
44886;DHT22;36669;51.428;21.162;2022-11-20T04:50:51;-7.20;99.90
44886;DHT22;36669;51.428;21.162;2022-11-20T04:53:17;-7.20;99.90
44886;DHT22;36669;51.428;21.162;2022-11-20T04:55:42;-7.20;99.90
44886;DHT22;36669;51.428;21.162;2022-11-20T04:58:08;-7.20;99.90
44886;DHT22;36669;51.428;21.162;2022-11-20T05:00:34;-7.20;99.90
44886;DHT22;36669;51.428;21.162;2022-11-20T05:02:59;-7.20;99.90
44886;DHT22;36669;51.428;21.162;2022-11-20T05:05:25;-7.30;99.90
44886;DHT22;36669;51.428;21.162;2022-11-20T05:07:50;-7.30;99.90
44886;DHT22;36669;51.428;21.162;2022-11-20T05:10:16;-7.30;99.90
44886;DHT22;36669;51.428;21.162;2022-11-20T05:12:42;-7.30;99.90
44886;DHT22;36669;51.428;21.162;2022-11-20T05:15:07;-7.30;99.90
44886;DHT22;36669;51.428;21.162;2022-11-20T05:17:33;-7.30;99.90
44886;DHT22;36669;51.428;21.162;2022-11-20T05:19:59;-7.30;99.90
44886;DHT22;36669;51.428;21.162;2022-11-20T05:22:24;-7.30;99.90
44886;DHT22;36669;51.428;21.162;2022-11-20T05:24:50;-7.30;99.90
44886;DHT22;36669;51.428;21.162;2022-11-20T05:27:17;-7.30;99.90
44886;DHT22;36669;51.428;21.162;2022-11-20T05:29:42;-7.30;99.90
44886;DHT22;36669;51.428;21.162;2022-11-20T05:32:08;-7.30;99.90
44886;DHT22;36669;51.428;21.162;2022-11-20T05:34:33;-7.30;99.90
44886;DHT22;36669;51.428;21.162;2022-11-20T05:36:59;-7.40;99.90
44886;DHT22;36669;51.428;21.162;2022-11-20T05:39:24;-7.40;99.90
44886;DHT22;36669;51.428;21.162;2022-11-20T05:41:50;-7.40;99.90
44886;DHT22;36669;51.428;21.162;2022-11-20T05:44:15;-7.40;99.90
44886;DHT22;36669;51.428;21.162;2022-11-20T05:46:41;-7.40;99.90
44886;DHT22;36669;51.428;21.162;2022-11-20T05:49:06;-7.40;99.90
44886;DHT22;36669;51.428;21.162;2022-11-20T05:51:32;-7.40;99.90
44886;DHT22;36669;51.428;21.162;2022-11-20T05:53:57;-7.40;99.90
44886;DHT22;36669;51.428;21.162;2022-11-20T05:56:23;-7.40;99.90
44886;DHT22;36669;51.428;21.162;2022-11-20T05:58:49;-7.40;99.90
44886;DHT22;36669;51.428;21.162;2022-11-20T06:01:19;-7.50;99.90
44886;DHT22;36669;51.428;21.162;2022-11-20T06:03:45;-7.50;99.90
44886;DHT22;36669;51.428;21.162;2022-11-20T06:06:11;-7.50;99.90
44886;DHT22;36669;51.428;21.162;2022-11-20T06:08:37;-7.50;99.90
44886;DHT22;36669;51.428;21.162;2022-11-20T06:11:05;-7.50;99.90
44886;DHT22;36669;51.428;21.162;2022-11-20T06:13:30;-7.50;99.90
44886;DHT22;36669;51.428;21.162;2022-11-20T06:15:56;-7.50;99.90
44886;DHT22;36669;51.428;21.162;2022-11-20T06:18:21;-7.50;99.90
44886;DHT22;36669;51.428;21.162;2022-11-20T06:20:47;-7.50;99.90
44886;DHT22;36669;51.428;21.162;2022-11-20T06:23:12;-7.50;99.90
44886;DHT22;36669;51.428;21.162;2022-11-20T06:25:39;-7.50;99.90
44886;DHT22;36669;51.428;21.162;2022-11-20T06:28:05;-7.50;99.90
44886;DHT22;36669;51.428;21.162;2022-11-20T06:30:30;-7.50;99.90
44886;DHT22;36669;51.428;21.162;2022-11-20T06:32:56;-7.40;99.90
44886;DHT22;36669;51.428;21.162;2022-11-20T06:35:21;-7.40;99.90
44886;DHT22;36669;51.428;21.162;2022-11-20T06:37:47;-7.30;99.90
44886;DHT22;36669;51.428;21.162;2022-11-20T06:40:12;-7.30;99.90
44886;DHT22;36669;51.428;21.162;2022-11-20T06:42:38;-7.20;99.90
44886;DHT22;36669;51.428;21.162;2022-11-20T06:45:03;-7.20;99.90
44886;DHT22;36669;51.428;21.162;2022-11-20T06:47:29;-7.10;99.90
44886;DHT22;36669;51.428;21.162;2022-11-20T06:49:55;-7.10;99.90
44886;DHT22;36669;51.428;21.162;2022-11-20T06:52:20;-7.10;99.90
44886;DHT22;36669;51.428;21.162;2022-11-20T06:54:46;-7.10;99.90
44886;DHT22;36669;51.428;21.162;2022-11-20T06:57:11;-7.00;99.90
44886;DHT22;36669;51.428;21.162;2022-11-20T06:59:37;-6.90;99.90
44886;DHT22;36669;51.428;21.162;2022-11-20T07:02:02;-6.80;99.90
44886;DHT22;36669;51.428;21.162;2022-11-20T07:04:28;-6.80;99.90
44886;DHT22;36669;51.428;21.162;2022-11-20T07:06:53;-6.70;99.90
44886;DHT22;36669;51.428;21.162;2022-11-20T07:09:19;-6.60;99.90
44886;DHT22;36669;51.428;21.162;2022-11-20T07:11:44;-6.60;99.90
44886;DHT22;36669;51.428;21.162;2022-11-20T07:14:11;-6.60;99.90
44886;DHT22;36669;51.428;21.162;2022-11-20T07:16:38;-6.50;99.90
44886;DHT22;36669;51.428;21.162;2022-11-20T07:19:03;-6.40;99.90
44886;DHT22;36669;51.428;21.162;2022-11-20T07:21:29;-6.30;99.90
44886;DHT22;36669;51.428;21.162;2022-11-20T07:23:54;-6.30;99.90
44886;DHT22;36669;51.428;21.162;2022-11-20T07:26:20;-6.20;99.90
44886;DHT22;36669;51.428;21.162;2022-11-20T07:28:45;-6.10;99.90
44886;DHT22;36669;51.428;21.162;2022-11-20T07:31:11;-5.90;99.90
44886;DHT22;36669;51.428;21.162;2022-11-20T07:33:37;-5.80;99.90
44886;DHT22;36669;51.428;21.162;2022-11-20T07:36:02;-5.70;99.90
44886;DHT22;36669;51.428;21.162;2022-11-20T07:38:28;-5.50;99.90
44886;DHT22;36669;51.428;21.162;2022-11-20T07:40:55;-5.40;99.90
44886;DHT22;36669;51.428;21.162;2022-11-20T07:43:20;-5.30;99.90
44886;DHT22;36669;51.428;21.162;2022-11-20T07:45:46;-5.20;99.90
44886;DHT22;36669;51.428;21.162;2022-11-20T07:48:11;-5.10;99.90
44886;DHT22;36669;51.428;21.162;2022-11-20T07:50:37;-5.00;99.90
44886;DHT22;36669;51.428;21.162;2022-11-20T07:53:04;-4.90;99.90
44886;DHT22;36669;51.428;21.162;2022-11-20T07:55:30;-4.80;99.90
44886;DHT22;36669;51.428;21.162;2022-11-20T07:57:56;-4.70;99.90
44886;DHT22;36669;51.428;21.162;2022-11-20T08:00:21;-4.60;99.90
44886;DHT22;36669;51.428;21.162;2022-11-20T08:02:47;-4.50;99.90
44886;DHT22;36669;51.428;21.162;2022-11-20T08:05:12;-4.40;99.90
44886;DHT22;36669;51.428;21.162;2022-11-20T08:07:39;-4.30;99.90
44886;DHT22;36669;51.428;21.162;2022-11-20T08:10:06;-4.30;99.90
44886;DHT22;36669;51.428;21.162;2022-11-20T08:12:32;-4.20;99.90
44886;DHT22;36669;51.428;21.162;2022-11-20T08:14:58;-4.10;99.90
44886;DHT22;36669;51.428;21.162;2022-11-20T08:17:23;-4.00;99.90
44886;DHT22;36669;51.428;21.162;2022-11-20T08:19:49;-3.90;99.90
44886;DHT22;36669;51.428;21.162;2022-11-20T08:22:14;-3.80;99.90
44886;DHT22;36669;51.428;21.162;2022-11-20T08:24:40;-3.70;99.90
44886;DHT22;36669;51.428;21.162;2022-11-20T08:27:05;-3.60;99.90
44886;DHT22;36669;51.428;21.162;2022-11-20T08:29:31;-3.50;99.90
44886;DHT22;36669;51.428;21.162;2022-11-20T08:31:56;-3.40;99.90
44886;DHT22;36669;51.428;21.162;2022-11-20T08:34:22;-3.30;99.90
44886;DHT22;36669;51.428;21.162;2022-11-20T08:36:47;-3.20;99.90
44886;DHT22;36669;51.428;21.162;2022-11-20T08:39:13;-3.10;99.90
44886;DHT22;36669;51.428;21.162;2022-11-20T08:41:39;-3.00;99.90
44886;DHT22;36669;51.428;21.162;2022-11-20T08:44:06;-2.90;99.90
44886;DHT22;36669;51.428;21.162;2022-11-20T08:46:38;-2.90;99.90
44886;DHT22;36669;51.428;21.162;2022-11-20T08:49:04;-2.80;99.90
44886;DHT22;36669;51.428;21.162;2022-11-20T08:51:30;-2.70;99.90
44886;DHT22;36669;51.428;21.162;2022-11-20T08:53:56;-2.60;99.90
44886;DHT22;36669;51.428;21.162;2022-11-20T08:56:21;-2.50;99.90
44886;DHT22;36669;51.428;21.162;2022-11-20T08:58:47;-2.40;99.90
44886;DHT22;36669;51.428;21.162;2022-11-20T09:01:12;-2.30;99.90
44886;DHT22;36669;51.428;21.162;2022-11-20T09:03:38;-2.20;99.90
44886;DHT22;36669;51.428;21.162;2022-11-20T09:06:06;-2.00;99.90
44886;DHT22;36669;51.428;21.162;2022-11-20T09:08:32;-1.90;99.90
44886;DHT22;36669;51.428;21.162;2022-11-20T09:10:58;-1.80;99.90
44886;DHT22;36669;51.428;21.162;2022-11-20T09:13:25;-1.70;99.90
44886;DHT22;36669;51.428;21.162;2022-11-20T09:15:56;-1.60;99.90
44886;DHT22;36669;51.428;21.162;2022-11-20T09:18:22;-1.40;99.90
44886;DHT22;36669;51.428;21.162;2022-11-20T09:20:47;-1.30;99.90
44886;DHT22;36669;51.428;21.162;2022-11-20T09:23:13;-1.10;99.90
44886;DHT22;36669;51.428;21.162;2022-11-20T09:25:38;-0.90;99.90
44886;DHT22;36669;51.428;21.162;2022-11-20T09:28:04;-0.70;99.90
44886;DHT22;36669;51.428;21.162;2022-11-20T09:30:29;-0.50;99.90
44886;DHT22;36669;51.428;21.162;2022-11-20T09:32:55;-0.40;99.90
44886;DHT22;36669;51.428;21.162;2022-11-20T09:35:20;-0.40;99.90
44886;DHT22;36669;51.428;21.162;2022-11-20T09:37:46;-0.30;99.90
44886;DHT22;36669;51.428;21.162;2022-11-20T09:40:21;-0.40;99.90
44886;DHT22;36669;51.428;21.162;2022-11-20T09:50:57;0.60;99.90
44886;DHT22;36669;51.428;21.162;2022-11-20T09:53:45;0.90;99.90
44886;DHT22;36669;51.428;21.162;2022-11-20T09:56:11;1.20;99.90
44886;DHT22;36669;51.428;21.162;2022-11-20T09:58:51;1.50;99.90
44886;DHT22;36669;51.428;21.162;2022-11-20T10:01:19;1.40;99.90
44886;DHT22;36669;51.428;21.162;2022-11-20T10:03:54;1.70;99.90
44886;DHT22;36669;51.428;21.162;2022-11-20T10:06:31;1.90;99.90
44886;DHT22;36669;51.428;21.162;2022-11-20T10:09:34;1.90;99.90
44886;DHT22;36669;51.428;21.162;2022-11-20T10:15:06;2.20;99.90
44886;DHT22;36669;51.428;21.162;2022-11-20T10:18:16;2.40;99.90
44886;DHT22;36669;51.428;21.162;2022-11-20T10:21:09;2.80;99.90
44886;DHT22;36669;51.428;21.162;2022-11-20T10:24:00;2.70;99.90
44886;DHT22;36669;51.428;21.162;2022-11-20T10:29:13;3.60;99.90
44886;DHT22;36669;51.428;21.162;2022-11-20T10:31:45;3.80;99.90
44886;DHT22;36669;51.428;21.162;2022-11-20T10:34:17;3.90;99.90
44886;DHT22;36669;51.428;21.162;2022-11-20T10:36:56;4.00;99.90
44886;DHT22;36669;51.428;21.162;2022-11-20T10:42:15;4.00;99.90
44886;DHT22;36669;51.428;21.162;2022-11-20T10:44:47;3.90;99.90
44886;DHT22;36669;51.428;21.162;2022-11-20T10:47:18;4.20;99.90
44886;DHT22;36669;51.428;21.162;2022-11-20T10:49:48;4.50;99.90
44886;DHT22;36669;51.428;21.162;2022-11-20T11:00:21;4.60;99.90
44886;DHT22;36669;51.428;21.162;2022-11-20T11:07:50;4.90;99.90
44886;DHT22;36669;51.428;21.162;2022-11-20T11:10:17;4.90;99.90
44886;DHT22;36669;51.428;21.162;2022-11-20T11:12:45;4.60;99.90
44886;DHT22;36669;51.428;21.162;2022-11-20T11:15:24;4.70;99.90
44886;DHT22;36669;51.428;21.162;2022-11-20T11:17:51;4.50;99.90
44886;DHT22;36669;51.428;21.162;2022-11-20T11:20:24;4.60;99.90
44886;DHT22;36669;51.428;21.162;2022-11-20T11:22:52;4.90;99.90
44886;DHT22;36669;51.428;21.162;2022-11-20T11:25:35;4.90;99.90
44886;DHT22;36669;51.428;21.162;2022-11-20T11:28:02;5.10;99.90
44886;DHT22;36669;51.428;21.162;2022-11-20T11:30:39;5.20;99.90
44886;DHT22;36669;51.428;21.162;2022-11-20T11:33:09;5.10;99.90
44886;DHT22;36669;51.428;21.162;2022-11-20T11:35:43;5.10;99.90
44886;DHT22;36669;51.428;21.162;2022-11-20T11:38:16;5.20;99.90
44886;DHT22;36669;51.428;21.162;2022-11-20T11:40:42;5.10;99.90
44886;DHT22;36669;51.428;21.162;2022-11-20T11:43:22;4.70;99.90
44886;DHT22;36669;51.428;21.162;2022-11-20T11:45:53;4.20;99.90
44886;DHT22;36669;51.428;21.162;2022-11-20T11:48:19;3.60;99.90
44886;DHT22;36669;51.428;21.162;2022-11-20T11:50:50;3.30;99.90
44886;DHT22;36669;51.428;21.162;2022-11-20T11:53:20;3.40;99.90
44886;DHT22;36669;51.428;21.162;2022-11-20T11:56:07;3.50;99.90
44886;DHT22;36669;51.428;21.162;2022-11-20T11:58:46;3.50;99.90
44886;DHT22;36669;51.428;21.162;2022-11-20T12:06:32;3.60;99.90
44886;DHT22;36669;51.428;21.162;2022-11-20T12:09:03;3.20;99.90
44886;DHT22;36669;51.428;21.162;2022-11-20T12:14:43;2.80;99.90
44886;DHT22;36669;51.428;21.162;2022-11-20T12:17:11;2.30;99.90
44886;DHT22;36669;51.428;21.162;2022-11-20T12:19:38;2.40;99.90
44886;DHT22;36669;51.428;21.162;2022-11-20T12:28:17;2.40;99.90
44886;DHT22;36669;51.428;21.162;2022-11-20T12:30:49;2.40;99.90
44886;DHT22;36669;51.428;21.162;2022-11-20T12:33:58;2.30;99.90
44886;DHT22;36669;51.428;21.162;2022-11-20T12:39:20;2.10;99.90
44886;DHT22;36669;51.428;21.162;2022-11-20T12:47:32;2.80;99.90
44886;DHT22;36669;51.428;21.162;2022-11-20T12:58:46;2.70;99.90
44886;DHT22;36669;51.428;21.162;2022-11-20T13:06:34;2.30;99.90
44886;DHT22;36669;51.428;21.162;2022-11-20T13:09:00;2.20;99.90
44886;DHT22;36669;51.428;21.162;2022-11-20T13:12:05;2.20;99.90
44886;DHT22;36669;51.428;21.162;2022-11-20T13:14:40;2.30;99.90
44886;DHT22;36669;51.428;21.162;2022-11-20T13:17:33;2.20;99.90
44886;DHT22;36669;51.428;21.162;2022-11-20T13:20:02;2.20;99.90
44886;DHT22;36669;51.428;21.162;2022-11-20T13:22:47;1.90;99.90
44886;DHT22;36669;51.428;21.162;2022-11-20T13:25:26;1.50;99.90
44886;DHT22;36669;51.428;21.162;2022-11-20T13:27:53;1.50;99.90
44886;DHT22;36669;51.428;21.162;2022-11-20T13:30:21;1.30;99.90
44886;DHT22;36669;51.428;21.162;2022-11-20T13:36:24;0.80;99.90
44886;DHT22;36669;51.428;21.162;2022-11-20T13:38:52;0.60;99.90
44886;DHT22;36669;51.428;21.162;2022-11-20T13:41:53;0.30;99.90
44886;DHT22;36669;51.428;21.162;2022-11-20T13:46:59;-0.30;99.90
44886;DHT22;36669;51.428;21.162;2022-11-20T13:49:31;-0.40;99.90
44886;DHT22;36669;51.428;21.162;2022-11-20T14:00:13;-1.10;99.90
44886;DHT22;36669;51.428;21.162;2022-11-20T14:02:40;-1.20;99.90
44886;DHT22;36669;51.428;21.162;2022-11-20T14:05:19;-1.30;99.90
44886;DHT22;36669;51.428;21.162;2022-11-20T14:07:45;-1.30;99.90
44886;DHT22;36669;51.428;21.162;2022-11-20T14:10:23;-1.50;99.90
44886;DHT22;36669;51.428;21.162;2022-11-20T14:12:49;-1.50;99.90
44886;DHT22;36669;51.428;21.162;2022-11-20T14:15:32;-1.60;99.90
44886;DHT22;36669;51.428;21.162;2022-11-20T14:17:58;-1.70;99.90
44886;DHT22;36669;51.428;21.162;2022-11-20T14:20:26;-1.80;99.90
44886;DHT22;36669;51.428;21.162;2022-11-20T14:22:55;-1.80;99.90
44886;DHT22;36669;51.428;21.162;2022-11-20T14:25:25;-1.90;99.90
44886;DHT22;36669;51.428;21.162;2022-11-20T14:27:53;-1.90;99.90
44886;DHT22;36669;51.428;21.162;2022-11-20T14:30:24;-2.00;99.90
44886;DHT22;36669;51.428;21.162;2022-11-20T14:32:53;-2.00;99.90
44886;DHT22;36669;51.428;21.162;2022-11-20T14:35:37;-2.10;99.90
44886;DHT22;36669;51.428;21.162;2022-11-20T14:38:10;-2.20;99.90
44886;DHT22;36669;51.428;21.162;2022-11-20T14:40:37;-2.10;99.90
44886;DHT22;36669;51.428;21.162;2022-11-20T14:46:02;-2.30;99.90
44886;DHT22;36669;51.428;21.162;2022-11-20T14:48:39;-2.40;99.90
44886;DHT22;36669;51.428;21.162;2022-11-20T14:51:08;-2.40;99.90
44886;DHT22;36669;51.428;21.162;2022-11-20T14:53:34;-2.50;99.90
44886;DHT22;36669;51.428;21.162;2022-11-20T14:56:01;-2.50;99.90
44886;DHT22;36669;51.428;21.162;2022-11-20T14:58:29;-2.60;99.90
44886;DHT22;36669;51.428;21.162;2022-11-20T15:01:00;-2.60;99.90
44886;DHT22;36669;51.428;21.162;2022-11-20T15:03:33;-2.60;99.90
44886;DHT22;36669;51.428;21.162;2022-11-20T15:06:01;-2.70;99.90
44886;DHT22;36669;51.428;21.162;2022-11-20T15:08:27;-2.70;99.90
44886;DHT22;36669;51.428;21.162;2022-11-20T15:10:53;-2.80;99.90
44886;DHT22;36669;51.428;21.162;2022-11-20T15:13:36;-2.90;99.90
44886;DHT22;36669;51.428;21.162;2022-11-20T15:16:03;-2.90;99.90
44886;DHT22;36669;51.428;21.162;2022-11-20T15:18:37;-3.00;99.90
44886;DHT22;36669;51.428;21.162;2022-11-20T15:21:11;-3.00;99.90
44886;DHT22;36669;51.428;21.162;2022-11-20T15:23:36;-3.10;99.90
44886;DHT22;36669;51.428;21.162;2022-11-20T15:26:04;-3.10;99.90
44886;DHT22;36669;51.428;21.162;2022-11-20T15:28:33;-3.10;99.90
44886;DHT22;36669;51.428;21.162;2022-11-20T15:30:59;-3.10;99.90
44886;DHT22;36669;51.428;21.162;2022-11-20T15:33:25;-3.20;99.90
44886;DHT22;36669;51.428;21.162;2022-11-20T15:35:50;-3.20;99.90
44886;DHT22;36669;51.428;21.162;2022-11-20T15:38:16;-3.30;99.90
44886;DHT22;36669;51.428;21.162;2022-11-20T15:40:41;-3.30;99.90
44886;DHT22;36669;51.428;21.162;2022-11-20T15:43:07;-3.30;99.90
44886;DHT22;36669;51.428;21.162;2022-11-20T15:48:45;-3.40;99.90
44886;DHT22;36669;51.428;21.162;2022-11-20T15:53:41;-3.30;99.90
44886;DHT22;36669;51.428;21.162;2022-11-20T15:56:11;-3.20;99.90
44886;DHT22;36669;51.428;21.162;2022-11-20T15:58:36;-3.20;99.90
44886;DHT22;36669;51.428;21.162;2022-11-20T16:01:02;-3.20;99.90
44886;DHT22;36669;51.428;21.162;2022-11-20T16:03:27;-3.10;99.90
44886;DHT22;36669;51.428;21.162;2022-11-20T16:05:53;-3.10;99.90
44886;DHT22;36669;51.428;21.162;2022-11-20T16:08:18;-3.20;99.90
44886;DHT22;36669;51.428;21.162;2022-11-20T16:10:44;-3.20;99.90
44886;DHT22;36669;51.428;21.162;2022-11-20T16:13:17;-3.20;99.90
44886;DHT22;36669;51.428;21.162;2022-11-20T16:15:44;-3.20;99.90
44886;DHT22;36669;51.428;21.162;2022-11-20T16:18:17;-3.30;99.90
44886;DHT22;36669;51.428;21.162;2022-11-20T16:20:43;-3.30;99.90
44886;DHT22;36669;51.428;21.162;2022-11-20T16:23:09;-3.40;99.90
44886;DHT22;36669;51.428;21.162;2022-11-20T16:25:34;-3.40;99.90
44886;DHT22;36669;51.428;21.162;2022-11-20T16:28:00;-3.40;99.90
44886;DHT22;36669;51.428;21.162;2022-11-20T16:30:25;-3.40;99.90
44886;DHT22;36669;51.428;21.162;2022-11-20T16:32:51;-3.40;99.90
44886;DHT22;36669;51.428;21.162;2022-11-20T16:35:16;-3.50;99.90
44886;DHT22;36669;51.428;21.162;2022-11-20T16:37:42;-3.50;99.90
44886;DHT22;36669;51.428;21.162;2022-11-20T16:40:08;-3.50;99.90
44886;DHT22;36669;51.428;21.162;2022-11-20T16:42:35;-3.50;99.90
44886;DHT22;36669;51.428;21.162;2022-11-20T16:45:01;-3.60;99.90
44886;DHT22;36669;51.428;21.162;2022-11-20T16:47:26;-3.60;99.90
44886;DHT22;36669;51.428;21.162;2022-11-20T16:49:52;-3.60;99.90
44886;DHT22;36669;51.428;21.162;2022-11-20T16:52:17;-3.60;99.90
44886;DHT22;36669;51.428;21.162;2022-11-20T16:54:43;-3.70;99.90
44886;DHT22;36669;51.428;21.162;2022-11-20T16:57:08;-3.70;99.90
44886;DHT22;36669;51.428;21.162;2022-11-20T16:59:34;-3.70;99.90